Lake Arthur, New Mexico
Current Conditions -  °F | °C
As of 4:51 PM on Friday 21 Nov 2014 (Local Time) from KROW Reporting Station
Clear Clear  
Wind Chill: 14°   Ceiling: Unl
Heat Index: 14°   Visibility: 10mi
Dew Point: -2°   Wind: 6mph
Humidity: 33%   Direction: 360°N
Pressure: 29.95"   Gusts: NA
Location:  33°N, 104.37°W
Report Text: KROW 212351Z 36005KT 10SM CLR 14/M02 A2995 RMK AO2 SLP116 T01441017 10194 20133 53004
Loading
Personal Weather Stations






























Interactive Weather Map New forecast layout! Learn more

10-Day Weather Forecast

Advertisements
Track Severe Weather on mobile